createdAt,value
2018-05-09T00:04:50.322Z,15.90
2018-05-09T00:09:53.959Z,15.70
2018-05-09T00:14:57.605Z,15.30
2018-05-09T00:20:00.844Z,15.00
2018-05-09T00:25:04.212Z,14.80
2018-05-09T00:30:08.230Z,14.40
2018-05-09T00:35:12.042Z,14.40
2018-05-09T00:40:15.342Z,14.40
2018-05-09T00:45:18.752Z,14.70
2018-05-09T00:50:22.080Z,14.80
2018-05-09T00:55:25.897Z,14.80
2018-05-09T01:00:29.765Z,14.60
2018-05-09T01:05:33.531Z,14.60
2018-05-09T01:10:37.180Z,14.10
2018-05-09T01:15:40.465Z,14.10
2018-05-09T01:20:43.747Z,14.00
2018-05-09T01:25:47.155Z,13.70
2018-05-09T01:30:50.670Z,13.50
2018-05-09T01:35:53.898Z,13.40
2018-05-09T01:40:57.153Z,13.40
2018-05-09T01:46:00.589Z,13.40
2018-05-09T01:51:04.409Z,13.50
2018-05-09T01:56:08.151Z,13.50
2018-05-09T02:01:11.416Z,13.50
2018-05-09T02:06:14.639Z,13.50
2018-05-09T02:11:17.863Z,13.30
2018-05-09T02:16:21.485Z,13.20
2018-05-09T02:21:24.746Z,13.20
2018-05-09T02:26:28.434Z,13.00
2018-05-09T02:31:31.708Z,13.00
2018-05-09T02:36:36.924Z,12.90
2018-05-09T02:41:40.155Z,12.90
2018-05-09T02:46:43.877Z,12.90
2018-05-09T02:51:47.149Z,12.90
2018-05-09T02:56:50.384Z,12.80
2018-05-09T03:01:54.035Z,12.40
2018-05-09T03:06:57.251Z,12.40
2018-05-09T03:12:00.481Z,12.20
2018-05-09T03:17:03.733Z,12.20
2018-05-09T03:22:06.974Z,12.20
2018-05-09T03:27:10.235Z,11.80
2018-05-09T03:32:13.838Z,11.50
2018-05-09T03:37:17.079Z,11.50
2018-05-09T03:42:20.319Z,11.40
2018-05-09T03:47:23.536Z,11.40
2018-05-09T03:52:26.783Z,11.70
2018-05-09T03:57:30.019Z,11.70
2018-05-09T04:02:46.094Z,11.70
2018-05-09T04:08:01.333Z,11.50
2018-05-09T04:13:04.664Z,11.10
2018-05-09T04:18:07.856Z,11.30
2018-05-09T04:23:12.272Z,11.50
2018-05-09T04:28:15.779Z,11.60
2018-05-09T04:33:18.881Z,11.40
2018-05-09T04:38:22.107Z,11.40
2018-05-09T04:43:25.354Z,11.60
2018-05-09T04:48:28.989Z,12.40
2018-05-09T04:53:32.260Z,12.80
2018-05-09T04:58:35.969Z,12.90
2018-05-09T05:03:39.189Z,12.90
2018-05-09T05:08:42.800Z,12.80
2018-05-09T05:13:46.415Z,12.90
2018-05-09T05:18:50.064Z,13.10
2018-05-09T05:23:53.288Z,13.10
2018-05-09T05:28:56.538Z,13.40
2018-05-09T05:34:00.249Z,14.00
2018-05-09T05:39:03.527Z,14.00
2018-05-09T05:44:06.935Z,14.10
2018-05-09T05:49:10.172Z,14.40
2018-05-09T05:54:13.403Z,14.50
2018-05-09T05:59:16.624Z,14.60
2018-05-09T06:04:19.992Z,14.70
2018-05-09T06:09:23.637Z,14.80
2018-05-09T06:14:27.010Z,14.80
2018-05-09T06:19:30.335Z,14.80
2018-05-09T06:24:34.042Z,14.90
2018-05-09T06:29:37.292Z,14.90
2018-05-09T06:34:40.655Z,15.10
2018-05-09T06:39:43.963Z,15.20
2018-05-09T06:44:47.198Z,15.20
2018-05-09T06:49:50.490Z,15.50
2018-05-09T06:54:54.104Z,15.90
2018-05-09T06:59:57.741Z,16.10
2018-05-09T07:05:01.123Z,16.10
2018-05-09T07:10:04.745Z,15.80
2018-05-09T07:15:08.367Z,16.10
2018-05-09T07:20:11.983Z,16.30
2018-05-09T07:25:15.199Z,16.30
2018-05-09T07:30:18.429Z,16.50
2018-05-09T07:35:21.785Z,16.30
2018-05-09T07:40:25.444Z,16.70
2018-05-09T07:45:28.800Z,16.70
2018-05-09T07:50:32.016Z,16.70
2018-05-09T07:55:35.683Z,17.20
2018-05-09T08:00:39.029Z,17.20
2018-05-09T08:05:42.256Z,17.50
2018-05-09T08:10:45.875Z,17.50
2018-05-09T08:15:49.102Z,17.50
2018-05-09T08:20:52.363Z,17.30
2018-05-09T08:25:55.973Z,17.50
2018-05-09T08:30:59.220Z,17.50
2018-05-09T08:36:02.476Z,18.10
2018-05-09T08:41:05.814Z,18.00
2018-05-09T08:46:09.042Z,17.90
2018-05-09T08:51:12.256Z,18.30
2018-05-09T08:56:15.496Z,18.50
2018-05-09T09:01:18.795Z,18.30
2018-05-09T09:06:22.098Z,18.60
2018-05-09T09:11:25.673Z,18.60
2018-05-09T09:16:28.962Z,18.60
2018-05-09T09:21:32.966Z,19.20
2018-05-09T09:26:36.481Z,19.20
2018-05-09T09:31:40.104Z,20.20
2018-05-09T09:36:43.733Z,20.70
2018-05-09T09:41:46.979Z,20.70
2018-05-09T09:46:50.204Z,20.80
2018-05-09T09:51:53.452Z,20.90
2018-05-09T09:56:56.670Z,20.40
2018-05-09T10:02:00.034Z,20.50
2018-05-09T10:07:03.264Z,20.70
2018-05-09T10:12:06.500Z,20.70
2018-05-09T10:17:09.740Z,20.90
2018-05-09T10:22:13.195Z,21.30
2018-05-09T10:27:16.478Z,20.90
2018-05-09T10:32:20.215Z,22.40
2018-05-09T10:37:23.431Z,22.40
2018-05-09T10:42:26.638Z,22.40
2018-05-09T10:47:29.921Z,22.10
2018-05-09T10:52:33.117Z,21.80
2018-05-09T10:57:36.743Z,22.70
2018-05-09T11:02:40.359Z,23.90
2018-05-09T11:07:44.176Z,23.70
2018-05-09T11:12:48.226Z,23.50
2018-05-09T11:17:51.468Z,23.50
2018-05-09T11:22:54.705Z,23.70
2018-05-09T11:27:58.411Z,25.00
2018-05-09T11:33:01.654Z,25.00
2018-05-09T11:38:04.882Z,24.70
2018-05-09T11:43:08.247Z,25.40
2018-05-09T11:48:11.477Z,25.70
2018-05-09T11:53:14.832Z,24.80
2018-05-09T11:58:18.151Z,23.60
2018-05-09T12:03:21.781Z,26.90
2018-05-09T12:08:25.053Z,26.90
2018-05-09T12:13:28.276Z,28.00
2018-05-09T12:18:31.530Z,29.20
2018-05-09T12:23:34.742Z,29.90
2018-05-09T12:28:37.969Z,29.70
2018-05-09T12:33:41.187Z,29.10
2018-05-09T12:38:44.508Z,28.80
2018-05-09T12:43:47.765Z,28.70
2018-05-09T12:48:51.106Z,29.20
2018-05-09T12:53:54.268Z,28.50
2018-05-09T12:58:57.494Z,29.60
2018-05-09T13:04:00.744Z,29.80
2018-05-09T13:09:04.460Z,30.90
2018-05-09T13:14:08.180Z,31.40
2018-05-09T13:19:11.804Z,31.70
2018-05-09T13:24:15.061Z,31.70
2018-05-09T13:29:18.296Z,32.50
2018-05-09T13:34:21.535Z,32.20
2018-05-09T13:39:24.775Z,32.40
2018-05-09T13:44:28.015Z,29.70
2018-05-09T13:49:31.628Z,26.70
2018-05-09T13:54:35.293Z,27.10
2018-05-09T13:59:38.507Z,27.10
2018-05-09T14:04:41.762Z,27.60
2018-05-09T14:09:45.159Z,27.80
2018-05-09T14:14:48.785Z,28.10
2018-05-09T14:19:52.124Z,28.10
2018-05-09T14:24:55.367Z,27.30
2018-05-09T14:29:58.604Z,27.80
2018-05-09T14:35:02.453Z,30.00
2018-05-09T14:40:05.713Z,32.10
2018-05-09T14:45:10.328Z,32.20
2018-05-09T14:50:13.937Z,32.10
2018-05-09T14:55:17.167Z,32.10
2018-05-09T15:00:20.468Z,33.10
2018-05-09T15:05:23.730Z,33.90
2018-05-09T15:10:27.075Z,30.50
2018-05-09T15:15:30.330Z,31.90
2018-05-09T15:20:34.072Z,32.50
2018-05-09T15:25:37.883Z,32.00
2018-05-09T15:30:41.529Z,31.30
2018-05-09T15:35:44.889Z,31.30
2018-05-09T15:40:48.574Z,32.10
2018-05-09T15:45:52.621Z,32.10
2018-05-09T15:50:56.249Z,31.70
2018-05-09T15:55:59.490Z,31.70
2018-05-09T16:01:02.847Z,31.80
2018-05-09T16:06:06.487Z,33.80
2018-05-09T16:11:10.515Z,33.80
2018-05-09T16:16:13.840Z,34.80
2018-05-09T16:21:17.181Z,35.20
2018-05-09T16:26:20.813Z,34.80
2018-05-09T16:31:24.185Z,34.80
2018-05-09T16:36:27.852Z,34.90
2018-05-09T16:41:31.210Z,34.90
2018-05-09T16:46:35.228Z,33.70
2018-05-09T16:51:38.538Z,33.70
2018-05-09T16:56:41.784Z,32.90
2018-05-09T17:01:45.022Z,29.00
2018-05-09T17:06:48.652Z,26.40
2018-05-09T17:11:52.157Z,26.40
2018-05-09T17:16:55.445Z,25.50
2018-05-09T17:22:16.725Z,23.60
2018-05-09T17:27:19.977Z,23.60
2018-05-09T17:32:23.616Z,22.60
2018-05-09T17:37:27.022Z,22.60
2018-05-09T17:42:30.291Z,22.50
2018-05-09T17:47:33.521Z,22.40
2018-05-09T17:52:36.799Z,22.20
2018-05-09T17:57:40.466Z,21.80
2018-05-09T18:02:43.691Z,21.80
2018-05-09T18:07:46.978Z,21.60
2018-05-09T18:12:50.289Z,21.30
2018-05-09T18:17:53.513Z,20.80
2018-05-09T18:22:57.137Z,20.20
2018-05-09T18:28:00.392Z,20.20
2018-05-09T18:33:03.627Z,20.00
2018-05-09T18:38:29.938Z,19.70
2018-05-09T18:49:13.019Z,19.70
2018-05-09T18:54:22.116Z,19.50
2018-05-09T18:59:26.176Z,19.20
2018-05-09T19:04:31.897Z,19.00
2018-05-09T19:09:38.842Z,18.80
2018-05-09T19:14:45.645Z,18.80
2018-05-09T19:19:49.665Z,18.80
2018-05-09T19:24:53.034Z,18.80
2018-05-09T19:29:56.750Z,18.60
2018-05-09T19:35:00.388Z,18.20
2018-05-09T19:40:04.376Z,17.90
2018-05-09T19:45:07.618Z,17.90
2018-05-09T19:50:10.877Z,17.60
2018-05-09T19:55:14.521Z,17.60
2018-05-09T20:00:17.757Z,17.60
2018-05-09T20:05:21.071Z,17.60
2018-05-09T20:10:24.607Z,17.50
2018-05-09T20:15:29.316Z,17.30
2018-05-09T20:20:32.589Z,17.30
2018-05-09T20:25:35.873Z,17.20
2018-05-09T20:30:45.100Z,17.10
2018-05-09T20:35:48.732Z,16.80
2018-05-09T20:40:52.456Z,16.70
2018-05-09T20:45:55.675Z,16.70
2018-05-09T20:50:58.917Z,16.50
2018-05-09T20:56:02.168Z,16.40
2018-05-09T21:01:17.431Z,16.30
2018-05-09T21:06:21.095Z,16.30
2018-05-09T21:11:24.728Z,16.30
2018-05-09T21:16:28.067Z,16.20
2018-05-09T21:21:31.514Z,16.00
2018-05-09T21:26:36.349Z,15.70
2018-05-09T21:31:39.630Z,15.50
2018-05-09T21:36:43.447Z,14.80
2018-05-09T21:41:46.705Z,14.80
2018-05-09T21:46:50.088Z,14.70
2018-05-09T21:51:53.598Z,14.70
2018-05-09T21:56:57.045Z,14.40
2018-05-09T22:02:00.281Z,14.40
2018-05-09T22:07:03.596Z,14.20
2018-05-09T22:12:07.132Z,13.70
2018-05-09T22:17:10.487Z,13.60
2018-05-09T22:22:13.724Z,13.80
2018-05-09T22:27:18.031Z,14.00
2018-05-09T22:32:21.356Z,14.10
2018-05-09T22:37:25.114Z,13.90
2018-05-09T22:42:28.396Z,13.90
2018-05-09T22:47:31.643Z,13.80
2018-05-09T22:52:36.024Z,13.60
2018-05-09T22:57:39.434Z,13.40
2018-05-09T23:02:43.868Z,13.20
2018-05-09T23:07:47.608Z,13.50
2018-05-09T23:12:51.250Z,13.60
2018-05-09T23:17:54.516Z,13.60
2018-05-09T23:22:58.227Z,13.30
2018-05-09T23:28:01.503Z,13.30
2018-05-09T23:33:04.737Z,13.20
2018-05-09T23:38:08.479Z,13.10
2018-05-09T23:43:12.202Z,13.10
2018-05-09T23:48:18.287Z,13.10
2018-05-09T23:53:21.677Z,12.70
2018-05-09T23:58:25.060Z,12.60
